createdAt,value
2023-02-25T00:00:11.009Z,98.97
2023-02-25T00:03:15.404Z,99.39
2023-02-25T00:06:19.365Z,100.00
2023-02-25T00:09:22.069Z,100.00
2023-02-25T00:12:24.666Z,100.00
2023-02-25T00:15:27.377Z,100.00
2023-02-25T00:18:30.944Z,99.43
2023-02-25T00:21:34.894Z,100.00
2023-02-25T00:24:37.505Z,98.43
2023-02-25T00:27:40.095Z,99.86
2023-02-25T00:30:43.468Z,97.34
2023-02-25T00:33:46.600Z,97.73
2023-02-25T00:36:50.678Z,97.24
2023-02-25T00:39:53.361Z,97.18
2023-02-25T00:42:55.945Z,97.19
2023-02-25T00:45:59.842Z,95.68
2023-02-25T00:49:02.587Z,95.30
2023-02-25T00:52:07.384Z,96.37
2023-02-25T00:55:10.819Z,95.33
2023-02-25T00:58:13.416Z,96.00
2023-02-25T01:01:18.997Z,95.37
2023-02-25T01:04:22.181Z,95.53
2023-02-25T01:07:26.295Z,95.78
2023-02-25T01:10:29.362Z,95.28
2023-02-25T01:13:31.956Z,95.30
2023-02-25T01:16:36.172Z,95.62
2023-02-25T01:19:38.881Z,94.48
2023-02-25T01:22:42.856Z,94.36
2023-02-25T01:25:45.437Z,93.69
2023-02-25T01:28:48.017Z,92.85
2023-02-25T01:31:53.155Z,93.94
2023-02-25T01:34:56.520Z,95.12
2023-02-25T01:38:00.496Z,93.29
2023-02-25T01:41:04.048Z,93.14
2023-02-25T01:44:10.339Z,92.25
2023-02-25T01:47:21.155Z,91.82
2023-02-25T01:50:26.366Z,91.76
2023-02-25T01:53:34.344Z,90.55
2023-02-25T01:56:39.603Z,91.92
2023-02-25T01:59:43.982Z,92.60
2023-02-25T02:02:49.282Z,91.93
2023-02-25T02:06:00.768Z,90.12
2023-02-25T02:09:07.409Z,91.91
2023-02-25T02:12:10.006Z,91.79
2023-02-25T02:15:15.313Z,91.68
2023-02-25T02:18:19.131Z,90.81
2023-02-25T02:21:41.524Z,92.05
2023-02-25T02:25:29.605Z,92.74
2023-02-25T02:29:04.634Z,92.89
2023-02-25T02:32:16.240Z,92.25
2023-02-25T02:35:23.247Z,91.86
2023-02-25T02:38:34.688Z,91.58
2023-02-25T02:41:40.936Z,92.18
2023-02-25T02:44:53.103Z,91.60
2023-02-25T02:48:01.341Z,90.88
2023-02-25T02:51:10.340Z,92.61
2023-02-25T02:54:15.573Z,92.42
2023-02-25T02:57:22.299Z,93.00
2023-02-25T03:00:28.275Z,92.02
2023-02-25T03:03:38.291Z,92.25
2023-02-25T03:06:44.371Z,91.69
2023-02-25T03:09:50.326Z,89.31
2023-02-25T03:12:53.009Z,88.74
2023-02-25T03:15:56.830Z,88.67
2023-02-25T03:19:07.477Z,88.01
2023-02-25T03:22:14.287Z,88.48
2023-02-25T03:25:21.960Z,87.01
2023-02-25T03:28:31.481Z,86.30
2023-02-25T03:31:38.359Z,87.36
2023-02-25T03:34:45.357Z,87.44
2023-02-25T03:37:51.684Z,85.93
2023-02-25T03:40:57.069Z,86.58
2023-02-25T03:44:00.529Z,85.36
2023-02-25T03:47:05.362Z,84.93
2023-02-25T03:50:13.356Z,84.07
2023-02-25T03:53:15.984Z,81.90
2023-02-25T03:56:18.642Z,83.57
2023-02-25T03:59:23.789Z,84.99
2023-02-25T04:02:29.334Z,83.19
2023-02-25T04:05:33.576Z,83.50
2023-02-25T04:08:36.140Z,82.13
2023-02-25T04:11:38.721Z,81.87
2023-02-25T04:14:41.337Z,81.25
2023-02-25T04:17:45.105Z,80.52
2023-02-25T04:20:49.046Z,81.23
2023-02-25T04:23:51.644Z,80.91
2023-02-25T04:26:58.237Z,80.29
2023-02-25T04:30:01.144Z,82.86
2023-02-25T04:33:04.067Z,81.70
2023-02-25T04:36:23.344Z,82.90
2023-02-25T04:39:26.272Z,85.13
2023-02-25T04:42:28.886Z,85.51
2023-02-25T04:45:31.475Z,85.32
2023-02-25T04:48:34.024Z,86.42
2023-02-25T04:51:39.644Z,88.05
2023-02-25T04:54:42.441Z,88.27
2023-02-25T04:57:45.007Z,87.96
2023-02-25T05:00:49.234Z,87.99
2023-02-25T05:03:56.697Z,90.16
2023-02-25T05:07:00.718Z,89.31
2023-02-25T05:10:03.333Z,89.73
2023-02-25T05:13:05.940Z,90.20
2023-02-25T05:16:11.902Z,89.74
2023-02-25T05:19:17.269Z,91.39
2023-02-25T05:22:22.112Z,90.28
2023-02-25T05:25:25.049Z,90.74
2023-02-25T05:28:27.724Z,92.28
2023-02-25T05:31:30.396Z,92.32
2023-02-25T05:34:33.093Z,91.78
2023-02-25T05:37:37.126Z,91.87
2023-02-25T05:40:39.809Z,90.72
2023-02-25T05:43:42.971Z,91.72
2023-02-25T05:46:45.576Z,92.29
2023-02-25T05:49:48.244Z,91.82
2023-02-25T05:52:52.175Z,91.46
2023-02-25T05:55:55.659Z,91.07
2023-02-25T05:58:58.279Z,90.14
2023-02-25T06:02:00.949Z,89.30
2023-02-25T06:05:04.097Z,89.69
2023-02-25T06:08:08.720Z,90.39
2023-02-25T06:11:14.540Z,90.71
2023-02-25T06:14:17.424Z,91.39
2023-02-25T06:17:20.016Z,91.79
2023-02-25T06:20:25.139Z,94.08
2023-02-25T06:23:29.073Z,93.74
2023-02-25T06:26:31.809Z,95.54
2023-02-25T06:29:34.382Z,95.16
2023-02-25T06:32:37.213Z,95.06
2023-02-25T06:35:39.931Z,93.96
2023-02-25T06:38:46.048Z,92.82
2023-02-25T06:41:49.406Z,94.57
2023-02-25T06:44:51.984Z,93.53
2023-02-25T06:47:54.588Z,93.14
2023-02-25T06:50:57.182Z,92.52
2023-02-25T06:54:04.507Z,92.98
2023-02-25T06:57:07.105Z,93.22
2023-02-25T07:00:10.895Z,93.52
2023-02-25T07:03:13.750Z,95.46
2023-02-25T07:06:16.343Z,96.47
2023-02-25T07:09:20.271Z,97.00
2023-02-25T07:12:22.879Z,98.28
2023-02-25T07:15:25.471Z,100.00
2023-02-25T07:18:28.063Z,100.00
2023-02-25T07:21:33.695Z,100.00
2023-02-25T07:24:37.980Z,99.25
2023-02-25T07:27:44.169Z,99.32
2023-02-25T07:30:47.508Z,98.14
2023-02-25T07:33:50.357Z,96.45
2023-02-25T07:36:53.016Z,96.88
2023-02-25T07:39:59.604Z,97.67
2023-02-25T07:43:03.602Z,96.79
2023-02-25T07:46:06.794Z,95.12
2023-02-25T07:49:09.395Z,95.75
2023-02-25T07:52:12.026Z,95.62
2023-02-25T07:55:15.999Z,93.47
2023-02-25T07:58:18.606Z,93.92
2023-02-25T08:01:24.617Z,92.58
2023-02-25T08:04:29.908Z,93.83
2023-02-25T08:07:32.583Z,92.26
2023-02-25T08:10:37.711Z,94.03
2023-02-25T08:13:41.317Z,92.80
2023-02-25T08:16:43.890Z,92.34
2023-02-25T08:19:46.497Z,92.01
2023-02-25T08:22:49.129Z,90.96
2023-02-25T08:25:55.897Z,91.45
2023-02-25T08:28:58.746Z,92.21
2023-02-25T08:32:01.494Z,94.27
2023-02-25T08:35:05.289Z,95.11
2023-02-25T08:38:08.645Z,98.29
2023-02-25T08:41:13.294Z,99.05
2023-02-25T08:44:16.041Z,100.00
2023-02-25T08:47:18.846Z,100.00
2023-02-25T08:50:23.743Z,100.00
2023-02-25T08:53:26.330Z,100.00
2023-02-25T08:56:30.611Z,100.00
2023-02-25T08:59:35.884Z,100.00
2023-02-25T09:02:39.829Z,99.67
2023-02-25T09:05:42.408Z,97.35
2023-02-25T09:08:45.005Z,98.38
2023-02-25T09:11:49.990Z,100.00
2023-02-25T09:14:52.704Z,100.00
2023-02-25T09:17:55.283Z,100.00
2023-02-25T09:20:57.871Z,100.00
2023-02-25T09:24:00.684Z,100.00
2023-02-25T09:27:07.830Z,100.00
2023-02-25T09:30:11.466Z,100.00
2023-02-25T09:33:14.122Z,100.00
2023-02-25T09:36:19.289Z,100.00
2023-02-25T09:39:21.850Z,100.00
2023-02-25T09:42:28.292Z,100.00
2023-02-25T09:45:33.862Z,100.00
2023-02-25T09:48:41.557Z,100.00
2023-02-25T09:51:48.380Z,100.00
2023-02-25T09:54:56.602Z,100.00
2023-02-25T09:58:07.380Z,100.00
2023-02-25T10:01:19.178Z,100.00
2023-02-25T10:04:30.816Z,100.00
2023-02-25T10:07:37.033Z,98.99
2023-02-25T10:10:46.651Z,96.09
2023-02-25T10:13:57.379Z,93.99
2023-02-25T10:17:07.332Z,91.60
2023-02-25T10:20:34.840Z,88.14
2023-02-25T10:23:52.041Z,83.72
2023-02-25T10:26:59.445Z,80.23
2023-02-25T10:30:07.712Z,78.30
2023-02-25T10:33:17.523Z,78.32
2023-02-25T10:36:25.553Z,77.53
2023-02-25T10:39:31.204Z,78.80
2023-02-25T10:42:34.996Z,79.14
2023-02-25T10:45:41.294Z,73.55
2023-02-25T10:48:48.517Z,74.18
2023-02-25T10:52:15.318Z,73.62
2023-02-25T10:55:27.626Z,76.56
2023-02-25T10:58:37.904Z,79.77
2023-02-25T11:01:43.785Z,78.59
2023-02-25T11:04:46.942Z,78.42
2023-02-25T11:07:49.932Z,79.21
2023-02-25T11:11:02.915Z,80.76
2023-02-25T11:14:07.290Z,78.78
2023-02-25T11:17:20.223Z,80.42
2023-02-25T11:20:25.855Z,79.57
2023-02-25T11:23:33.380Z,79.31
2023-02-25T11:26:39.251Z,76.30
2023-02-25T11:29:44.724Z,77.13
2023-02-25T11:32:53.742Z,75.31
2023-02-25T11:35:59.753Z,74.62
2023-02-25T11:39:09.009Z,73.56
2023-02-25T11:42:24.144Z,70.10
2023-02-25T11:45:30.796Z,62.66
2023-02-25T11:48:46.903Z,55.54
2023-02-25T11:51:57.412Z,50.40
2023-02-25T11:55:15.052Z,54.08
2023-02-25T11:58:30.274Z,54.88
2023-02-25T12:01:43.401Z,56.82
2023-02-25T12:05:18.371Z,55.23
2023-02-25T12:08:51.257Z,52.54
2023-02-25T12:12:12.724Z,54.46
2023-02-25T12:15:48.892Z,56.48
2023-02-25T12:19:31.653Z,55.60
2023-02-25T12:22:58.677Z,51.83
2023-02-25T12:26:10.802Z,47.67
2023-02-25T12:29:39.429Z,46.50
2023-02-25T12:32:53.670Z,49.49
2023-02-25T12:36:24.680Z,49.88
2023-02-25T12:39:41.929Z,51.03
2023-02-25T12:43:01.887Z,52.88
2023-02-25T12:46:27.919Z,51.11
2023-02-25T12:49:47.856Z,52.90
2023-02-25T12:53:06.224Z,50.96
2023-02-25T12:56:44.517Z,53.05
2023-02-25T13:00:27.435Z,51.38
2023-02-25T13:03:42.908Z,47.76
2023-02-25T13:07:01.270Z,45.29
2023-02-25T13:10:30.736Z,46.95
2023-02-25T13:14:09.418Z,46.15
2023-02-25T13:17:43.153Z,49.30
2023-02-25T13:20:58.346Z,48.63
2023-02-25T13:24:22.650Z,47.08
2023-02-25T13:27:40.860Z,42.68
2023-02-25T13:30:53.522Z,42.68
2023-02-25T13:34:14.323Z,38.74
2023-02-25T13:37:29.340Z,37.48
2023-02-25T13:40:41.911Z,38.79
2023-02-25T13:44:01.549Z,38.00
2023-02-25T13:47:21.799Z,39.29
2023-02-25T13:51:02.279Z,39.80
2023-02-25T13:54:20.956Z,37.78
2023-02-25T13:57:36.136Z,36.16
2023-02-25T14:01:00.818Z,34.99
2023-02-25T14:04:36.049Z,34.39
2023-02-25T14:08:09.031Z,36.81
2023-02-25T14:11:31.077Z,39.54
2023-02-25T14:14:48.183Z,39.44
2023-02-25T14:18:05.698Z,39.97
2023-02-25T14:21:31.868Z,40.90
2023-02-25T14:24:43.076Z,42.79
2023-02-25T14:27:52.094Z,42.50
2023-02-25T14:31:08.201Z,43.79
2023-02-25T14:34:28.138Z,43.11
2023-02-25T14:37:38.264Z,43.62
2023-02-25T14:40:48.912Z,45.06
2023-02-25T14:43:57.210Z,44.23
2023-02-25T14:47:06.292Z,45.55
2023-02-25T14:50:15.682Z,46.51
2023-02-25T14:54:09.389Z,47.93
2023-02-25T14:57:49.023Z,47.33
2023-02-25T15:01:23.550Z,46.42
2023-02-25T15:04:41.498Z,50.07
2023-02-25T15:07:57.689Z,47.39
2023-02-25T15:11:15.143Z,49.29
2023-02-25T15:14:59.156Z,49.00
2023-02-25T15:18:29.137Z,48.19
2023-02-25T15:21:43.967Z,45.75
2023-02-25T15:24:47.274Z,46.85
2023-02-25T15:27:51.071Z,47.28
2023-02-25T15:31:28.358Z,47.01
2023-02-25T15:34:35.901Z,47.75
2023-02-25T15:37:59.023Z,46.98
2023-02-25T15:41:02.563Z,48.23
2023-02-25T15:44:34.924Z,48.63
2023-02-25T15:47:41.522Z,47.32
2023-02-25T15:50:54.183Z,47.53
2023-02-25T15:53:57.247Z,48.21
2023-02-25T15:57:01.374Z,49.69
2023-02-25T16:00:10.975Z,49.30
2023-02-25T16:03:41.956Z,50.97
2023-02-25T16:06:44.783Z,51.38
2023-02-25T16:09:54.481Z,50.06
2023-02-25T16:12:58.587Z,48.63
2023-02-25T16:16:03.959Z,47.97
2023-02-25T16:19:10.580Z,47.88
2023-02-25T16:22:17.346Z,48.36
2023-02-25T16:25:27.232Z,49.61
2023-02-25T16:28:44.088Z,49.61
2023-02-25T16:31:51.912Z,50.93
2023-02-25T16:34:59.826Z,51.13
2023-02-25T16:38:10.150Z,52.13
2023-02-25T16:41:13.936Z,52.25
2023-02-25T16:44:20.053Z,51.52
2023-02-25T16:47:26.514Z,53.43
2023-02-25T16:50:33.037Z,52.80
2023-02-25T16:53:35.696Z,52.24
2023-02-25T16:56:38.593Z,54.05
2023-02-25T16:59:41.176Z,54.93
2023-02-25T17:02:46.357Z,53.42
2023-02-25T17:06:04.302Z,53.27
2023-02-25T17:09:06.883Z,54.50
2023-02-25T17:12:16.141Z,55.62
2023-02-25T17:15:22.933Z,55.49
2023-02-25T17:18:30.961Z,57.13
2023-02-25T17:21:37.253Z,57.12
2023-02-25T17:24:40.280Z,55.82
2023-02-25T17:27:43.727Z,56.62
2023-02-25T17:30:47.314Z,57.03
2023-02-25T17:33:52.771Z,57.69
2023-02-25T17:36:59.252Z,57.75
2023-02-25T17:40:04.254Z,59.24
2023-02-25T17:43:21.295Z,58.38
2023-02-25T17:46:29.395Z,58.67
2023-02-25T17:49:34.039Z,60.57
2023-02-25T17:52:38.119Z,60.31
2023-02-25T17:55:40.704Z,60.34
2023-02-25T17:58:43.752Z,60.37
2023-02-25T18:01:48.963Z,59.34
2023-02-25T18:04:51.844Z,60.29
2023-02-25T18:08:17.434Z,60.22
2023-02-25T18:11:27.411Z,60.13
2023-02-25T18:14:35.722Z,60.53
2023-02-25T18:17:40.243Z,59.56
2023-02-25T18:20:46.189Z,59.47
2023-02-25T18:23:51.716Z,60.72
2023-02-25T18:27:20.085Z,60.71
2023-02-25T18:30:26.050Z,59.65
2023-02-25T18:33:28.753Z,59.53
2023-02-25T18:36:31.377Z,60.41
2023-02-25T18:39:38.033Z,60.98
2023-02-25T18:42:40.583Z,62.75
2023-02-25T18:45:43.267Z,62.39
2023-02-25T18:48:45.838Z,62.31
2023-02-25T18:51:50.733Z,63.17
2023-02-25T18:54:54.666Z,63.39
2023-02-25T18:57:57.525Z,64.72
2023-02-25T19:01:00.418Z,63.59
2023-02-25T19:04:03.055Z,64.50
2023-02-25T19:07:10.404Z,65.02
2023-02-25T19:10:17.046Z,64.88
2023-02-25T19:13:23.700Z,66.15
2023-02-25T19:16:26.643Z,65.85
2023-02-25T19:19:29.477Z,67.00
2023-02-25T19:22:32.071Z,66.54
2023-02-25T19:25:36.846Z,66.32
2023-02-25T19:28:39.518Z,66.45
2023-02-25T19:31:42.195Z,66.88
2023-02-25T19:34:45.128Z,68.28
2023-02-25T19:37:47.847Z,69.56
2023-02-25T19:40:51.783Z,71.25
2023-02-25T19:43:54.353Z,71.74
2023-02-25T19:46:56.976Z,80.87
2023-02-25T19:49:59.555Z,89.33
2023-02-25T19:53:03.467Z,94.39
2023-02-25T19:56:08.258Z,98.18
2023-02-25T19:59:11.907Z,99.19
2023-02-25T20:02:14.903Z,100.00
2023-02-25T20:05:17.680Z,99.88
2023-02-25T20:08:20.637Z,98.23
2023-02-25T20:11:24.563Z,96.47
2023-02-25T20:14:28.846Z,95.10
2023-02-25T20:17:32.543Z,93.96
2023-02-25T20:20:36.809Z,93.33
2023-02-25T20:23:39.939Z,92.86
2023-02-25T20:26:44.776Z,93.18
2023-02-25T20:29:47.890Z,92.38
2023-02-25T20:32:50.560Z,92.28
2023-02-25T20:35:53.397Z,92.89
2023-02-25T20:39:16.282Z,91.20
2023-02-25T20:42:21.771Z,90.41
2023-02-25T20:45:24.862Z,90.74
2023-02-25T20:48:29.574Z,90.22
2023-02-25T20:51:33.201Z,89.01
2023-02-25T20:54:35.804Z,89.72
2023-02-25T20:57:39.734Z,89.38
2023-02-25T21:00:42.371Z,88.96
2023-02-25T21:03:44.952Z,89.59
2023-02-25T21:06:47.546Z,90.70
2023-02-25T21:09:50.145Z,89.76
2023-02-25T21:12:55.153Z,88.06
2023-02-25T21:15:59.737Z,87.43
2023-02-25T21:19:02.297Z,85.75
2023-02-25T21:22:05.137Z,86.29
2023-02-25T21:25:08.345Z,85.05
2023-02-25T21:28:12.560Z,84.29
2023-02-25T21:31:17.128Z,83.54
2023-02-25T21:34:20.068Z,84.44
2023-02-25T21:37:22.648Z,85.36
2023-02-25T21:40:25.250Z,82.66
2023-02-25T21:43:29.168Z,83.70
2023-02-25T21:46:31.790Z,83.97
2023-02-25T21:49:34.942Z,82.95
2023-02-25T21:52:37.539Z,83.71
2023-02-25T21:55:40.181Z,83.54
2023-02-25T21:58:44.441Z,84.09
2023-02-25T22:01:47.096Z,84.04
2023-02-25T22:04:49.770Z,84.37
2023-02-25T22:07:52.396Z,84.34
2023-02-25T22:10:55.007Z,84.42
2023-02-25T22:13:59.984Z,84.43
2023-02-25T22:17:02.567Z,84.52
2023-02-25T22:20:05.564Z,84.95
2023-02-25T22:23:08.154Z,86.90
2023-02-25T22:26:13.439Z,86.28
2023-02-25T22:29:17.441Z,86.26
2023-02-25T22:32:20.356Z,86.63
2023-02-25T22:35:23.048Z,86.52
2023-02-25T22:38:27.085Z,87.38
2023-02-25T22:41:30.905Z,86.94
2023-02-25T22:44:35.965Z,87.73
2023-02-25T22:47:38.536Z,87.26
2023-02-25T22:50:43.551Z,88.44
2023-02-25T22:53:46.139Z,88.37
2023-02-25T22:56:49.601Z,87.83
2023-02-25T22:59:53.580Z,89.01
2023-02-25T23:02:56.201Z,89.83
2023-02-25T23:05:58.816Z,88.86
2023-02-25T23:09:01.493Z,89.30
2023-02-25T23:12:05.014Z,89.76
2023-02-25T23:15:10.346Z,88.79
2023-02-25T23:18:13.056Z,88.81
2023-02-25T23:21:19.054Z,88.89
2023-02-25T23:24:22.649Z,88.86
2023-02-25T23:27:25.756Z,88.96
2023-02-25T23:30:29.899Z,89.37
2023-02-25T23:33:33.157Z,89.32
2023-02-25T23:36:36.287Z,89.82
2023-02-25T23:39:39.729Z,89.15
2023-02-25T23:42:42.948Z,89.07
2023-02-25T23:45:47.470Z,89.51
2023-02-25T23:48:50.172Z,88.78
2023-02-25T23:51:52.834Z,89.32
2023-02-25T23:54:55.428Z,88.92
2023-02-25T23:57:58.020Z,88.98
